sensor_id;sensor_type;location;lat;lon;timestamp;P1;durP1;ratioP1;P2;durP2;ratioP2
52047;SDS011;46904;49.438;8.752;2022-09-21T00:04:00;4.78;;;1.33;;
52047;SDS011;46904;49.438;8.752;2022-09-21T00:06:51;1.90;;;1.10;;
52047;SDS011;46904;49.438;8.752;2022-09-21T00:09:42;1.92;;;1.20;;
52047;SDS011;46904;49.438;8.752;2022-09-21T00:12:32;1.73;;;1.10;;
52047;SDS011;46904;49.438;8.752;2022-09-21T00:15:22;3.08;;;1.00;;
52047;SDS011;46904;49.438;8.752;2022-09-21T00:18:12;3.10;;;1.10;;
52047;SDS011;46904;49.438;8.752;2022-09-21T00:21:06;3.92;;;1.25;;
52047;SDS011;46904;49.438;8.752;2022-09-21T00:23:57;3.50;;;0.93;;
52047;SDS011;46904;49.438;8.752;2022-09-21T00:26:48;3.45;;;1.10;;
52047;SDS011;46904;49.438;8.752;2022-09-21T00:29:38;3.72;;;1.85;;
52047;SDS011;46904;49.438;8.752;2022-09-21T00:32:29;1.52;;;1.13;;
52047;SDS011;46904;49.438;8.752;2022-09-21T00:35:20;2.83;;;1.02;;
52047;SDS011;46904;49.438;8.752;2022-09-21T00:38:11;1.27;;;1.17;;
52047;SDS011;46904;49.438;8.752;2022-09-21T00:41:02;2.83;;;1.00;;
52047;SDS011;46904;49.438;8.752;2022-09-21T00:47:06;3.30;;;1.27;;
52047;SDS011;46904;49.438;8.752;2022-09-21T00:49:59;2.70;;;1.00;;
52047;SDS011;46904;49.438;8.752;2022-09-21T00:52:54;3.45;;;1.10;;
52047;SDS011;46904;49.438;8.752;2022-09-21T00:55:47;2.78;;;1.40;;
52047;SDS011;46904;49.438;8.752;2022-09-21T00:58:43;1.20;;;0.98;;
52047;SDS011;46904;49.438;8.752;2022-09-21T01:01:34;1.42;;;1.10;;
52047;SDS011;46904;49.438;8.752;2022-09-21T01:04:25;2.97;;;1.20;;
52047;SDS011;46904;49.438;8.752;2022-09-21T01:07:17;1.20;;;1.05;;
52047;SDS011;46904;49.438;8.752;2022-09-21T01:10:09;3.03;;;1.20;;
52047;SDS011;46904;49.438;8.752;2022-09-21T01:13:03;1.05;;;1.00;;
52047;SDS011;46904;49.438;8.752;2022-09-21T01:16:06;1.40;;;1.02;;
52047;SDS011;46904;49.438;8.752;2022-09-21T01:25:17;1.52;;;1.02;;
52047;SDS011;46904;49.438;8.752;2022-09-21T01:28:19;1.52;;;1.05;;
52047;SDS011;46904;49.438;8.752;2022-09-21T01:31:12;2.17;;;1.00;;
52047;SDS011;46904;49.438;8.752;2022-09-21T01:34:06;4.65;;;2.13;;
52047;SDS011;46904;49.438;8.752;2022-09-21T01:37:00;1.55;;;0.90;;
52047;SDS011;46904;49.438;8.752;2022-09-21T01:39:53;1.90;;;1.10;;
52047;SDS011;46904;49.438;8.752;2022-09-21T01:42:45;2.45;;;1.30;;
52047;SDS011;46904;49.438;8.752;2022-09-21T01:45:38;2.67;;;1.20;;
52047;SDS011;46904;49.438;8.752;2022-09-21T01:48:33;2.75;;;1.10;;
52047;SDS011;46904;49.438;8.752;2022-09-21T01:51:25;1.15;;;1.08;;
52047;SDS011;46904;49.438;8.752;2022-09-21T01:54:18;1.90;;;1.00;;
52047;SDS011;46904;49.438;8.752;2022-09-21T01:57:10;2.05;;;1.00;;
52047;SDS011;46904;49.438;8.752;2022-09-21T02:00:04;1.92;;;1.00;;
52047;SDS011;46904;49.438;8.752;2022-09-21T02:06:15;1.15;;;0.98;;
52047;SDS011;46904;49.438;8.752;2022-09-21T02:09:06;1.40;;;1.30;;
52047;SDS011;46904;49.438;8.752;2022-09-21T02:11:57;1.75;;;1.10;;
52047;SDS011;46904;49.438;8.752;2022-09-21T02:14:48;4.25;;;1.30;;
52047;SDS011;46904;49.438;8.752;2022-09-21T02:17:43;1.48;;;1.25;;
52047;SDS011;46904;49.438;8.752;2022-09-21T02:20:39;1.50;;;1.20;;
52047;SDS011;46904;49.438;8.752;2022-09-21T02:23:35;2.78;;;1.13;;
52047;SDS011;46904;49.438;8.752;2022-09-21T02:26:28;2.35;;;1.17;;
52047;SDS011;46904;49.438;8.752;2022-09-21T02:32:17;1.40;;;1.30;;
52047;SDS011;46904;49.438;8.752;2022-09-21T02:38:30;2.35;;;1.50;;
52047;SDS011;46904;49.438;8.752;2022-09-21T02:44:17;1.55;;;1.15;;
52047;SDS011;46904;49.438;8.752;2022-09-21T02:47:21;1.70;;;1.38;;
52047;SDS011;46904;49.438;8.752;2022-09-21T02:50:18;4.93;;;1.38;;
52047;SDS011;46904;49.438;8.752;2022-09-21T02:53:10;1.98;;;1.48;;
52047;SDS011;46904;49.438;8.752;2022-09-21T02:56:01;1.70;;;1.27;;
52047;SDS011;46904;49.438;8.752;2022-09-21T02:58:53;2.38;;;1.40;;
52047;SDS011;46904;49.438;8.752;2022-09-21T03:01:44;1.85;;;1.50;;
52047;SDS011;46904;49.438;8.752;2022-09-21T03:04:35;2.25;;;1.60;;
52047;SDS011;46904;49.438;8.752;2022-09-21T03:07:26;2.60;;;1.80;;
52047;SDS011;46904;49.438;8.752;2022-09-21T03:10:16;4.10;;;1.80;;
52047;SDS011;46904;49.438;8.752;2022-09-21T03:13:07;3.55;;;1.50;;
52047;SDS011;46904;49.438;8.752;2022-09-21T03:16:02;2.60;;;1.48;;
52047;SDS011;46904;49.438;8.752;2022-09-21T03:18:53;4.97;;;1.90;;
52047;SDS011;46904;49.438;8.752;2022-09-21T03:21:43;4.15;;;1.60;;
52047;SDS011;46904;49.438;8.752;2022-09-21T03:24:34;1.90;;;1.70;;
52047;SDS011;46904;49.438;8.752;2022-09-21T03:27:24;2.78;;;1.70;;
52047;SDS011;46904;49.438;8.752;2022-09-21T03:30:15;2.35;;;1.75;;
52047;SDS011;46904;49.438;8.752;2022-09-21T03:33:05;5.95;;;1.58;;
52047;SDS011;46904;49.438;8.752;2022-09-21T03:35:56;2.15;;;1.60;;
52047;SDS011;46904;49.438;8.752;2022-09-21T03:38:46;3.05;;;1.75;;
52047;SDS011;46904;49.438;8.752;2022-09-21T03:41:37;2.13;;;1.92;;
52047;SDS011;46904;49.438;8.752;2022-09-21T03:44:27;1.90;;;1.67;;
52047;SDS011;46904;49.438;8.752;2022-09-21T03:47:17;2.10;;;1.90;;
52047;SDS011;46904;49.438;8.752;2022-09-21T03:50:08;1.70;;;1.40;;
52047;SDS011;46904;49.438;8.752;2022-09-21T03:52:59;4.00;;;1.98;;
52047;SDS011;46904;49.438;8.752;2022-09-21T03:55:49;1.30;;;1.10;;
52047;SDS011;46904;49.438;8.752;2022-09-21T03:58:41;2.30;;;1.38;;
52047;SDS011;46904;49.438;8.752;2022-09-21T04:01:31;2.08;;;1.60;;
52047;SDS011;46904;49.438;8.752;2022-09-21T04:04:21;2.88;;;1.65;;
52047;SDS011;46904;49.438;8.752;2022-09-21T04:07:11;2.15;;;1.27;;
52047;SDS011;46904;49.438;8.752;2022-09-21T04:10:02;4.30;;;1.30;;
52047;SDS011;46904;49.438;8.752;2022-09-21T04:12:55;2.65;;;1.35;;
52047;SDS011;46904;49.438;8.752;2022-09-21T04:15:47;2.50;;;1.70;;
52047;SDS011;46904;49.438;8.752;2022-09-21T04:18:37;2.92;;;1.70;;
52047;SDS011;46904;49.438;8.752;2022-09-21T04:21:27;2.67;;;1.60;;
52047;SDS011;46904;49.438;8.752;2022-09-21T04:24:18;4.88;;;2.00;;
52047;SDS011;46904;49.438;8.752;2022-09-21T04:27:09;3.67;;;2.17;;
52047;SDS011;46904;49.438;8.752;2022-09-21T04:30:00;2.47;;;1.92;;
52047;SDS011;46904;49.438;8.752;2022-09-21T04:32:50;2.95;;;2.00;;
52047;SDS011;46904;49.438;8.752;2022-09-21T04:35:41;1.98;;;1.63;;
52047;SDS011;46904;49.438;8.752;2022-09-21T04:38:31;3.10;;;2.10;;
52047;SDS011;46904;49.438;8.752;2022-09-21T04:41:22;2.55;;;1.70;;
52047;SDS011;46904;49.438;8.752;2022-09-21T04:44:13;2.85;;;2.45;;
52047;SDS011;46904;49.438;8.752;2022-09-21T04:47:04;3.38;;;2.22;;
52047;SDS011;46904;49.438;8.752;2022-09-21T04:49:55;3.63;;;2.47;;
52047;SDS011;46904;49.438;8.752;2022-09-21T04:52:45;3.50;;;2.63;;
52047;SDS011;46904;49.438;8.752;2022-09-21T04:55:35;3.95;;;2.95;;
52047;SDS011;46904;49.438;8.752;2022-09-21T04:58:25;7.97;;;3.40;;
52047;SDS011;46904;49.438;8.752;2022-09-21T05:01:16;7.15;;;4.03;;
52047;SDS011;46904;49.438;8.752;2022-09-21T05:04:07;4.50;;;3.22;;
52047;SDS011;46904;49.438;8.752;2022-09-21T05:06:57;5.05;;;3.08;;
52047;SDS011;46904;49.438;8.752;2022-09-21T05:09:48;5.68;;;2.60;;
52047;SDS011;46904;49.438;8.752;2022-09-21T05:12:39;3.60;;;1.70;;
52047;SDS011;46904;49.438;8.752;2022-09-21T05:15:30;5.40;;;1.58;;
52047;SDS011;46904;49.438;8.752;2022-09-21T05:18:21;2.28;;;1.17;;
52047;SDS011;46904;49.438;8.752;2022-09-21T05:21:12;1.65;;;1.10;;
52047;SDS011;46904;49.438;8.752;2022-09-21T05:24:03;2.83;;;1.30;;
52047;SDS011;46904;49.438;8.752;2022-09-21T05:26:54;1.85;;;1.52;;
52047;SDS011;46904;49.438;8.752;2022-09-21T05:29:45;2.08;;;1.40;;
52047;SDS011;46904;49.438;8.752;2022-09-21T05:35:47;2.67;;;1.30;;
52047;SDS011;46904;49.438;8.752;2022-09-21T05:38:42;2.58;;;1.30;;
52047;SDS011;46904;49.438;8.752;2022-09-21T05:41:33;2.03;;;1.33;;
52047;SDS011;46904;49.438;8.752;2022-09-21T05:44:23;1.08;;;0.98;;
52047;SDS011;46904;49.438;8.752;2022-09-21T05:47:20;1.65;;;1.35;;
52047;SDS011;46904;49.438;8.752;2022-09-21T05:50:18;4.28;;;1.73;;
52047;SDS011;46904;49.438;8.752;2022-09-21T06:05:12;1.63;;;1.52;;
52047;SDS011;46904;49.438;8.752;2022-09-21T06:08:03;5.03;;;1.60;;
52047;SDS011;46904;49.438;8.752;2022-09-21T06:10:54;3.42;;;1.50;;
52047;SDS011;46904;49.438;8.752;2022-09-21T06:13:45;6.45;;;2.03;;
52047;SDS011;46904;49.438;8.752;2022-09-21T06:16:39;3.03;;;1.90;;
52047;SDS011;46904;49.438;8.752;2022-09-21T06:19:30;2.05;;;1.83;;
52047;SDS011;46904;49.438;8.752;2022-09-21T06:22:20;2.40;;;1.95;;
52047;SDS011;46904;49.438;8.752;2022-09-21T06:25:11;3.10;;;1.98;;
52047;SDS011;46904;49.438;8.752;2022-09-21T06:28:02;2.15;;;1.52;;
52047;SDS011;46904;49.438;8.752;2022-09-21T06:30:53;2.08;;;1.85;;
52047;SDS011;46904;49.438;8.752;2022-09-21T06:33:44;4.05;;;3.33;;
52047;SDS011;46904;49.438;8.752;2022-09-21T06:36:34;3.97;;;3.28;;
52047;SDS011;46904;49.438;8.752;2022-09-21T06:39:25;3.78;;;3.15;;
52047;SDS011;46904;49.438;8.752;2022-09-21T06:42:16;4.18;;;3.08;;
52047;SDS011;46904;49.438;8.752;2022-09-21T06:45:07;4.60;;;3.33;;
52047;SDS011;46904;49.438;8.752;2022-09-21T06:47:58;3.92;;;3.25;;
52047;SDS011;46904;49.438;8.752;2022-09-21T06:50:48;5.28;;;3.88;;
52047;SDS011;46904;49.438;8.752;2022-09-21T06:53:39;4.28;;;3.88;;
52047;SDS011;46904;49.438;8.752;2022-09-21T06:56:30;5.38;;;4.47;;
52047;SDS011;46904;49.438;8.752;2022-09-21T06:59:21;4.90;;;3.63;;
52047;SDS011;46904;49.438;8.752;2022-09-21T07:02:11;4.93;;;4.00;;
52047;SDS011;46904;49.438;8.752;2022-09-21T07:05:01;8.00;;;4.82;;
52047;SDS011;46904;49.438;8.752;2022-09-21T07:07:55;5.82;;;4.40;;
52047;SDS011;46904;49.438;8.752;2022-09-21T07:10:46;6.10;;;4.10;;
52047;SDS011;46904;49.438;8.752;2022-09-21T07:13:36;5.20;;;3.85;;
52047;SDS011;46904;49.438;8.752;2022-09-21T07:16:27;5.55;;;4.53;;
52047;SDS011;46904;49.438;8.752;2022-09-21T07:19:18;5.35;;;3.90;;
52047;SDS011;46904;49.438;8.752;2022-09-21T07:22:09;4.93;;;3.80;;
52047;SDS011;46904;49.438;8.752;2022-09-21T07:25:00;6.15;;;4.30;;
52047;SDS011;46904;49.438;8.752;2022-09-21T07:27:51;6.63;;;4.10;;
52047;SDS011;46904;49.438;8.752;2022-09-21T07:30:42;5.35;;;3.55;;
52047;SDS011;46904;49.438;8.752;2022-09-21T07:33:36;6.45;;;3.72;;
52047;SDS011;46904;49.438;8.752;2022-09-21T07:36:34;4.63;;;2.90;;
52047;SDS011;46904;49.438;8.752;2022-09-21T07:39:29;3.25;;;2.83;;
52047;SDS011;46904;49.438;8.752;2022-09-21T07:42:20;4.85;;;2.58;;
52047;SDS011;46904;49.438;8.752;2022-09-21T07:45:11;3.72;;;2.08;;
52047;SDS011;46904;49.438;8.752;2022-09-21T07:48:02;2.97;;;1.70;;
52047;SDS011;46904;49.438;8.752;2022-09-21T07:50:53;2.55;;;1.20;;
52047;SDS011;46904;49.438;8.752;2022-09-21T07:53:44;2.10;;;1.10;;
52047;SDS011;46904;49.438;8.752;2022-09-21T07:56:35;1.65;;;0.90;;
52047;SDS011;46904;49.438;8.752;2022-09-21T07:59:25;0.93;;;0.77;;
52047;SDS011;46904;49.438;8.752;2022-09-21T08:02:16;1.52;;;1.00;;
52047;SDS011;46904;49.438;8.752;2022-09-21T08:05:07;1.70;;;0.80;;
52047;SDS011;46904;49.438;8.752;2022-09-21T08:07:58;1.38;;;0.70;;
52047;SDS011;46904;49.438;8.752;2022-09-21T08:10:48;1.35;;;0.70;;
52047;SDS011;46904;49.438;8.752;2022-09-21T08:13:39;1.10;;;0.55;;
52047;SDS011;46904;49.438;8.752;2022-09-21T08:16:30;1.52;;;0.70;;
52047;SDS011;46904;49.438;8.752;2022-09-21T08:19:20;0.70;;;0.70;;
52047;SDS011;46904;49.438;8.752;2022-09-21T08:22:11;1.17;;;1.00;;
52047;SDS011;46904;49.438;8.752;2022-09-21T08:25:02;1.65;;;1.00;;
52047;SDS011;46904;49.438;8.752;2022-09-21T08:27:56;15.68;;;1.45;;
52047;SDS011;46904;49.438;8.752;2022-09-21T08:30:46;1.42;;;1.27;;
52047;SDS011;46904;49.438;8.752;2022-09-21T08:33:37;3.92;;;1.10;;
52047;SDS011;46904;49.438;8.752;2022-09-21T08:36:28;1.58;;;1.30;;
52047;SDS011;46904;49.438;8.752;2022-09-21T08:39:19;1.40;;;1.30;;
52047;SDS011;46904;49.438;8.752;2022-09-21T08:45:05;1.60;;;1.10;;
52047;SDS011;46904;49.438;8.752;2022-09-21T08:47:57;1.88;;;1.35;;
52047;SDS011;46904;49.438;8.752;2022-09-21T08:50:53;1.88;;;1.10;;
52047;SDS011;46904;49.438;8.752;2022-09-21T08:53:45;3.25;;;0.95;;
52047;SDS011;46904;49.438;8.752;2022-09-21T08:56:37;2.90;;;2.13;;
52047;SDS011;46904;49.438;8.752;2022-09-21T08:59:28;1.00;;;0.90;;
52047;SDS011;46904;49.438;8.752;2022-09-21T09:08:18;1.05;;;0.90;;
52047;SDS011;46904;49.438;8.752;2022-09-21T09:11:16;1.25;;;1.10;;
52047;SDS011;46904;49.438;8.752;2022-09-21T09:20:33;0.85;;;0.65;;
52047;SDS011;46904;49.438;8.752;2022-09-21T09:23:23;0.88;;;0.80;;
52047;SDS011;46904;49.438;8.752;2022-09-21T09:26:17;1.23;;;0.70;;
52047;SDS011;46904;49.438;8.752;2022-09-21T09:29:31;1.00;;;0.73;;
52047;SDS011;46904;49.438;8.752;2022-09-21T09:32:26;1.58;;;0.70;;
52047;SDS011;46904;49.438;8.752;2022-09-21T09:38:20;2.15;;;1.00;;
52047;SDS011;46904;49.438;8.752;2022-09-21T09:41:24;0.70;;;0.70;;
52047;SDS011;46904;49.438;8.752;2022-09-21T09:44:25;2.47;;;0.88;;
52047;SDS011;46904;49.438;8.752;2022-09-21T09:53:14;1.02;;;0.50;;
52047;SDS011;46904;49.438;8.752;2022-09-21T09:56:08;1.48;;;0.60;;
52047;SDS011;46904;49.438;8.752;2022-09-21T09:58:59;0.70;;;0.70;;
52047;SDS011;46904;49.438;8.752;2022-09-21T10:02:06;1.13;;;1.00;;
52047;SDS011;46904;49.438;8.752;2022-09-21T10:04:57;0.90;;;0.65;;
52047;SDS011;46904;49.438;8.752;2022-09-21T10:07:51;0.90;;;0.50;;
52047;SDS011;46904;49.438;8.752;2022-09-21T10:10:42;0.52;;;0.50;;
52047;SDS011;46904;49.438;8.752;2022-09-21T10:13:34;0.60;;;0.60;;
52047;SDS011;46904;49.438;8.752;2022-09-21T10:16:25;1.48;;;0.60;;
52047;SDS011;46904;49.438;8.752;2022-09-21T10:19:25;0.55;;;0.55;;
52047;SDS011;46904;49.438;8.752;2022-09-21T10:22:17;0.70;;;0.60;;
52047;SDS011;46904;49.438;8.752;2022-09-21T10:25:13;2.75;;;0.80;;
52047;SDS011;46904;49.438;8.752;2022-09-21T10:28:04;0.90;;;0.73;;
52047;SDS011;46904;49.438;8.752;2022-09-21T10:34:21;1.25;;;0.70;;
52047;SDS011;46904;49.438;8.752;2022-09-21T10:37:22;0.98;;;0.60;;
52047;SDS011;46904;49.438;8.752;2022-09-21T10:43:18;0.80;;;0.70;;
52047;SDS011;46904;49.438;8.752;2022-09-21T10:46:11;0.98;;;0.52;;
52047;SDS011;46904;49.438;8.752;2022-09-21T10:49:03;0.45;;;0.43;;
52047;SDS011;46904;49.438;8.752;2022-09-21T10:51:55;1.00;;;0.60;;
52047;SDS011;46904;49.438;8.752;2022-09-21T10:54:50;1.20;;;0.70;;
52047;SDS011;46904;49.438;8.752;2022-09-21T10:57:41;0.95;;;0.50;;
52047;SDS011;46904;49.438;8.752;2022-09-21T11:00:33;0.90;;;0.60;;
52047;SDS011;46904;49.438;8.752;2022-09-21T11:06:34;1.45;;;0.70;;
52047;SDS011;46904;49.438;8.752;2022-09-21T11:09:26;1.88;;;0.80;;
52047;SDS011;46904;49.438;8.752;2022-09-21T11:12:27;0.70;;;0.70;;
52047;SDS011;46904;49.438;8.752;2022-09-21T11:46:44;0.60;;;0.60;;
52047;SDS011;46904;49.438;8.752;2022-09-21T11:52:50;0.73;;;0.73;;
52047;SDS011;46904;49.438;8.752;2022-09-21T12:04:54;0.60;;;0.60;;
52047;SDS011;46904;49.438;8.752;2022-09-21T12:10:41;1.13;;;0.82;;
52047;SDS011;46904;49.438;8.752;2022-09-21T12:13:36;0.60;;;0.60;;
52047;SDS011;46904;49.438;8.752;2022-09-21T12:16:51;0.77;;;0.50;;
52047;SDS011;46904;49.438;8.752;2022-09-21T12:19:45;2.25;;;0.93;;
52047;SDS011;46904;49.438;8.752;2022-09-21T12:22:37;0.85;;;0.50;;
52047;SDS011;46904;49.438;8.752;2022-09-21T12:25:36;1.02;;;0.65;;
52047;SDS011;46904;49.438;8.752;2022-09-21T12:28:35;0.60;;;0.60;;
52047;SDS011;46904;49.438;8.752;2022-09-21T12:31:34;0.50;;;0.50;;
52047;SDS011;46904;49.438;8.752;2022-09-21T12:34:28;2.15;;;0.77;;
52047;SDS011;46904;49.438;8.752;2022-09-21T12:37:22;1.52;;;0.55;;
52047;SDS011;46904;49.438;8.752;2022-09-21T12:40:17;1.33;;;0.60;;
52047;SDS011;46904;49.438;8.752;2022-09-21T12:49:16;0.50;;;0.50;;
52047;SDS011;46904;49.438;8.752;2022-09-21T12:52:09;1.90;;;1.30;;
52047;SDS011;46904;49.438;8.752;2022-09-21T13:01:04;1.05;;;0.77;;
52047;SDS011;46904;49.438;8.752;2022-09-21T13:09:42;0.50;;;0.50;;
52047;SDS011;46904;49.438;8.752;2022-09-21T13:12:38;0.77;;;0.60;;
52047;SDS011;46904;49.438;8.752;2022-09-21T13:15:41;1.00;;;0.85;;
52047;SDS011;46904;49.438;8.752;2022-09-21T13:18:49;0.80;;;0.60;;
52047;SDS011;46904;49.438;8.752;2022-09-21T13:21:44;0.50;;;0.50;;
52047;SDS011;46904;49.438;8.752;2022-09-21T13:28:04;2.67;;;0.60;;
52047;SDS011;46904;49.438;8.752;2022-09-21T13:42:51;1.05;;;0.60;;
52047;SDS011;46904;49.438;8.752;2022-09-21T13:48:35;1.77;;;0.70;;
52047;SDS011;46904;49.438;8.752;2022-09-21T13:51:25;0.50;;;0.50;;
52047;SDS011;46904;49.438;8.752;2022-09-21T13:54:16;0.50;;;0.50;;
52047;SDS011;46904;49.438;8.752;2022-09-21T14:03:00;0.60;;;0.60;;
52047;SDS011;46904;49.438;8.752;2022-09-21T14:05:59;0.52;;;0.45;;
52047;SDS011;46904;49.438;8.752;2022-09-21T14:11:41;0.60;;;0.60;;
52047;SDS011;46904;49.438;8.752;2022-09-21T14:14:34;0.55;;;0.55;;
52047;SDS011;46904;49.438;8.752;2022-09-21T14:17:36;0.50;;;0.50;;
52047;SDS011;46904;49.438;8.752;2022-09-21T14:20:30;0.85;;;0.50;;
52047;SDS011;46904;49.438;8.752;2022-09-21T14:26:19;0.90;;;0.60;;
52047;SDS011;46904;49.438;8.752;2022-09-21T14:32:12;0.88;;;0.70;;
52047;SDS011;46904;49.438;8.752;2022-09-21T14:35:22;0.50;;;0.50;;
52047;SDS011;46904;49.438;8.752;2022-09-21T14:38:26;0.65;;;0.50;;
52047;SDS011;46904;49.438;8.752;2022-09-21T14:41:18;0.60;;;0.60;;
52047;SDS011;46904;49.438;8.752;2022-09-21T14:44:19;2.90;;;0.98;;
52047;SDS011;46904;49.438;8.752;2022-09-21T14:50:24;0.50;;;0.50;;
52047;SDS011;46904;49.438;8.752;2022-09-21T14:53:27;0.50;;;0.50;;
52047;SDS011;46904;49.438;8.752;2022-09-21T14:59:32;2.83;;;1.38;;
52047;SDS011;46904;49.438;8.752;2022-09-21T15:02:31;0.90;;;0.50;;
52047;SDS011;46904;49.438;8.752;2022-09-21T15:05:28;0.60;;;0.60;;
52047;SDS011;46904;49.438;8.752;2022-09-21T15:08:44;0.90;;;0.60;;
52047;SDS011;46904;49.438;8.752;2022-09-21T15:11:41;2.17;;;0.75;;
52047;SDS011;46904;49.438;8.752;2022-09-21T15:14:36;0.43;;;0.43;;
52047;SDS011;46904;49.438;8.752;2022-09-21T15:17:29;0.80;;;0.50;;
52047;SDS011;46904;49.438;8.752;2022-09-21T15:20:20;0.60;;;0.50;;
52047;SDS011;46904;49.438;8.752;2022-09-21T15:23:16;0.40;;;0.40;;
52047;SDS011;46904;49.438;8.752;2022-09-21T15:26:08;2.08;;;0.60;;
52047;SDS011;46904;49.438;8.752;2022-09-21T15:29:00;2.38;;;0.60;;
52047;SDS011;46904;49.438;8.752;2022-09-21T15:31:51;1.30;;;0.57;;
52047;SDS011;46904;49.438;8.752;2022-09-21T15:34:42;0.50;;;0.50;;
52047;SDS011;46904;49.438;8.752;2022-09-21T15:37:35;0.40;;;0.40;;
52047;SDS011;46904;49.438;8.752;2022-09-21T15:40:27;0.50;;;0.50;;
52047;SDS011;46904;49.438;8.752;2022-09-21T15:43:27;0.60;;;0.60;;
52047;SDS011;46904;49.438;8.752;2022-09-21T15:46:18;1.10;;;0.50;;
52047;SDS011;46904;49.438;8.752;2022-09-21T15:49:10;0.88;;;0.50;;
52047;SDS011;46904;49.438;8.752;2022-09-21T15:52:02;0.95;;;0.52;;
52047;SDS011;46904;49.438;8.752;2022-09-21T15:54:58;1.25;;;0.77;;
52047;SDS011;46904;49.438;8.752;2022-09-21T15:57:55;2.20;;;0.80;;
52047;SDS011;46904;49.438;8.752;2022-09-21T16:00:50;0.70;;;0.70;;
52047;SDS011;46904;49.438;8.752;2022-09-21T16:03:41;0.50;;;0.50;;
52047;SDS011;46904;49.438;8.752;2022-09-21T16:06:36;2.08;;;0.50;;
52047;SDS011;46904;49.438;8.752;2022-09-21T16:09:43;4.47;;;0.60;;
52047;SDS011;46904;49.438;8.752;2022-09-21T16:12:39;0.80;;;0.60;;
52047;SDS011;46904;49.438;8.752;2022-09-21T16:15:29;2.65;;;1.42;;
52047;SDS011;46904;49.438;8.752;2022-09-21T16:18:28;1.55;;;1.10;;
52047;SDS011;46904;49.438;8.752;2022-09-21T16:21:29;1.95;;;1.38;;
52047;SDS011;46904;49.438;8.752;2022-09-21T16:24:21;1.17;;;0.95;;
52047;SDS011;46904;49.438;8.752;2022-09-21T16:27:14;1.65;;;1.10;;
52047;SDS011;46904;49.438;8.752;2022-09-21T16:30:15;1.40;;;1.15;;
52047;SDS011;46904;49.438;8.752;2022-09-21T16:39:15;1.30;;;0.95;;
52047;SDS011;46904;49.438;8.752;2022-09-21T16:42:05;1.38;;;1.13;;
52047;SDS011;46904;49.438;8.752;2022-09-21T16:44:55;1.48;;;1.30;;
52047;SDS011;46904;49.438;8.752;2022-09-21T16:47:46;1.40;;;1.10;;
52047;SDS011;46904;49.438;8.752;2022-09-21T16:50:36;1.75;;;1.13;;
52047;SDS011;46904;49.438;8.752;2022-09-21T16:53:27;1.88;;;1.20;;
52047;SDS011;46904;49.438;8.752;2022-09-21T16:56:18;2.38;;;1.13;;
52047;SDS011;46904;49.438;8.752;2022-09-21T16:59:12;2.38;;;1.30;;
52047;SDS011;46904;49.438;8.752;2022-09-21T17:02:02;1.55;;;1.00;;
52047;SDS011;46904;49.438;8.752;2022-09-21T17:05:03;1.13;;;0.90;;
52047;SDS011;46904;49.438;8.752;2022-09-21T17:07:55;2.13;;;1.35;;
52047;SDS011;46904;49.438;8.752;2022-09-21T17:10:46;2.22;;;1.33;;
52047;SDS011;46904;49.438;8.752;2022-09-21T17:13:36;4.25;;;1.90;;
52047;SDS011;46904;49.438;8.752;2022-09-21T17:16:27;6.45;;;2.30;;
52047;SDS011;46904;49.438;8.752;2022-09-21T17:19:18;1.60;;;1.48;;
52047;SDS011;46904;49.438;8.752;2022-09-21T17:22:09;3.63;;;1.50;;
52047;SDS011;46904;49.438;8.752;2022-09-21T17:24:59;3.25;;;2.13;;
52047;SDS011;46904;49.438;8.752;2022-09-21T17:27:50;3.40;;;1.30;;
52047;SDS011;46904;49.438;8.752;2022-09-21T17:30:41;3.80;;;1.40;;
52047;SDS011;46904;49.438;8.752;2022-09-21T17:33:31;1.88;;;1.50;;
52047;SDS011;46904;49.438;8.752;2022-09-21T17:36:22;1.40;;;1.10;;
52047;SDS011;46904;49.438;8.752;2022-09-21T17:39:13;0.90;;;0.82;;
52047;SDS011;46904;49.438;8.752;2022-09-21T17:42:10;2.03;;;1.00;;
52047;SDS011;46904;49.438;8.752;2022-09-21T17:45:16;1.73;;;1.00;;
52047;SDS011;46904;49.438;8.752;2022-09-21T17:48:11;1.25;;;1.15;;
52047;SDS011;46904;49.438;8.752;2022-09-21T17:51:02;0.95;;;0.95;;
52047;SDS011;46904;49.438;8.752;2022-09-21T17:53:53;1.27;;;1.17;;
52047;SDS011;46904;49.438;8.752;2022-09-21T17:59:41;1.85;;;1.00;;
52047;SDS011;46904;49.438;8.752;2022-09-21T18:02:36;0.75;;;0.73;;
52047;SDS011;46904;49.438;8.752;2022-09-21T18:05:28;1.92;;;1.00;;
52047;SDS011;46904;49.438;8.752;2022-09-21T18:08:19;1.05;;;0.90;;
52047;SDS011;46904;49.438;8.752;2022-09-21T18:14:25;1.95;;;1.27;;
52047;SDS011;46904;49.438;8.752;2022-09-21T18:20:23;1.13;;;1.00;;
52047;SDS011;46904;49.438;8.752;2022-09-21T18:26:09;1.70;;;0.80;;
52047;SDS011;46904;49.438;8.752;2022-09-21T18:29:00;2.75;;;0.80;;
52047;SDS011;46904;49.438;8.752;2022-09-21T18:55:26;1.45;;;1.13;;
52047;SDS011;46904;49.438;8.752;2022-09-21T18:58:16;1.15;;;1.05;;
52047;SDS011;46904;49.438;8.752;2022-09-21T19:01:09;1.52;;;1.42;;
52047;SDS011;46904;49.438;8.752;2022-09-21T19:04:00;1.85;;;1.65;;
52047;SDS011;46904;49.438;8.752;2022-09-21T19:21:57;1.63;;;1.40;;
52047;SDS011;46904;49.438;8.752;2022-09-21T19:24:53;2.17;;;1.50;;
52047;SDS011;46904;49.438;8.752;2022-09-21T19:27:57;1.75;;;1.30;;
52047;SDS011;46904;49.438;8.752;2022-09-21T19:30:49;1.83;;;1.00;;
52047;SDS011;46904;49.438;8.752;2022-09-21T19:33:44;1.35;;;1.00;;
52047;SDS011;46904;49.438;8.752;2022-09-21T19:36:34;1.67;;;1.20;;
52047;SDS011;46904;49.438;8.752;2022-09-21T19:39:25;1.00;;;0.90;;
52047;SDS011;46904;49.438;8.752;2022-09-21T19:48:42;3.50;;;1.33;;
52047;SDS011;46904;49.438;8.752;2022-09-21T19:51:49;1.73;;;1.20;;
52047;SDS011;46904;49.438;8.752;2022-09-21T19:54:39;4.07;;;2.08;;
52047;SDS011;46904;49.438;8.752;2022-09-21T19:57:34;3.45;;;2.30;;
52047;SDS011;46904;49.438;8.752;2022-09-21T20:00:25;2.97;;;2.30;;
52047;SDS011;46904;49.438;8.752;2022-09-21T20:03:23;4.03;;;2.42;;
52047;SDS011;46904;49.438;8.752;2022-09-21T20:06:19;6.32;;;2.88;;
52047;SDS011;46904;49.438;8.752;2022-09-21T20:09:15;5.93;;;2.70;;
52047;SDS011;46904;49.438;8.752;2022-09-21T20:12:21;4.15;;;2.80;;
52047;SDS011;46904;49.438;8.752;2022-09-21T20:15:47;4.80;;;2.45;;
52047;SDS011;46904;49.438;8.752;2022-09-21T20:19:05;2.63;;;2.00;;
52047;SDS011;46904;49.438;8.752;2022-09-21T20:21:47;2.97;;;1.90;;
52047;SDS011;46904;49.438;8.752;2022-09-21T20:27:55;2.10;;;1.30;;
52047;SDS011;46904;49.438;8.752;2022-09-21T20:30:48;1.27;;;1.08;;
52047;SDS011;46904;49.438;8.752;2022-09-21T20:33:49;1.17;;;1.08;;
52047;SDS011;46904;49.438;8.752;2022-09-21T20:36:42;1.80;;;1.10;;
52047;SDS011;46904;49.438;8.752;2022-09-21T20:39:46;1.90;;;1.02;;
52047;SDS011;46904;49.438;8.752;2022-09-21T20:42:36;1.92;;;1.10;;
52047;SDS011;46904;49.438;8.752;2022-09-21T20:45:30;1.48;;;1.33;;
52047;SDS011;46904;49.438;8.752;2022-09-21T20:48:24;4.40;;;2.33;;
52047;SDS011;46904;49.438;8.752;2022-09-21T20:51:18;4.40;;;2.95;;
52047;SDS011;46904;49.438;8.752;2022-09-21T20:54:16;3.83;;;1.98;;
52047;SDS011;46904;49.438;8.752;2022-09-21T20:57:09;3.15;;;2.05;;
52047;SDS011;46904;49.438;8.752;2022-09-21T21:00:02;1.63;;;1.48;;
52047;SDS011;46904;49.438;8.752;2022-09-21T21:02:54;3.50;;;2.13;;
52047;SDS011;46904;49.438;8.752;2022-09-21T21:08:57;3.03;;;2.78;;
52047;SDS011;46904;49.438;8.752;2022-09-21T21:11:48;4.05;;;2.97;;
52047;SDS011;46904;49.438;8.752;2022-09-21T21:14:39;2.53;;;1.90;;
52047;SDS011;46904;49.438;8.752;2022-09-21T21:17:35;1.55;;;1.45;;
52047;SDS011;46904;49.438;8.752;2022-09-21T21:20:26;1.10;;;1.00;;
52047;SDS011;46904;49.438;8.752;2022-09-21T21:23:17;1.40;;;0.93;;
52047;SDS011;46904;49.438;8.752;2022-09-21T21:26:07;2.30;;;0.90;;
52047;SDS011;46904;49.438;8.752;2022-09-21T21:28:58;2.25;;;1.30;;
52047;SDS011;46904;49.438;8.752;2022-09-21T21:31:55;3.03;;;1.27;;